createdAt,value
2023-03-24T00:01:01.859Z,48.68
2023-03-24T00:06:05.860Z,48.98
2023-03-24T00:11:11.622Z,49.25
2023-03-24T00:16:16.927Z,49.56
2023-03-24T00:21:21.527Z,49.46
2023-03-24T00:26:24.927Z,49.63
2023-03-24T00:31:30.663Z,49.61
2023-03-24T00:36:33.778Z,49.82
2023-03-24T00:41:36.919Z,49.85
2023-03-24T00:46:46.140Z,49.94
2023-03-24T00:51:49.112Z,50.03
2023-03-24T00:56:55.745Z,50.04
2023-03-24T01:02:00.256Z,50.26
2023-03-24T01:07:03.351Z,50.27
2023-03-24T01:12:07.026Z,50.28
2023-03-24T01:17:11.322Z,50.34
2023-03-24T01:22:14.358Z,50.60
2023-03-24T01:27:17.240Z,50.64
2023-03-24T01:32:21.530Z,50.67
2023-03-24T01:37:24.454Z,50.58
2023-03-24T01:42:28.443Z,50.84
2023-03-24T01:47:34.105Z,50.81
2023-03-24T01:52:38.649Z,50.64
2023-03-24T01:57:43.054Z,51.04
2023-03-24T02:02:49.717Z,51.02
2023-03-24T02:08:01.724Z,51.09
2023-03-24T02:13:04.779Z,51.16
2023-03-24T02:18:13.356Z,51.16
2023-03-24T02:24:22.324Z,51.32
2023-03-24T02:29:52.253Z,51.28
2023-03-24T02:35:28.853Z,51.11
2023-03-24T02:40:37.538Z,51.25
2023-03-24T02:45:43.629Z,51.41
2023-03-24T02:50:51.337Z,51.19
2023-03-24T02:55:57.260Z,51.15
2023-03-24T03:01:03.436Z,51.37
2023-03-24T03:06:34.325Z,51.36
2023-03-24T03:11:39.313Z,51.54
2023-03-24T03:16:45.327Z,51.36
2023-03-24T03:21:49.560Z,51.59
2023-03-24T03:26:55.866Z,51.53
2023-03-24T03:31:59.828Z,51.79
2023-03-24T03:37:05.834Z,51.82
2023-03-24T03:42:10.086Z,51.61
2023-03-24T03:47:15.042Z,51.73
2023-03-24T03:52:20.802Z,51.86
2023-03-24T03:57:27.360Z,51.67
2023-03-24T04:02:54.173Z,52.07
2023-03-24T04:08:08.175Z,52.05
2023-03-24T04:13:33.050Z,52.01
2023-03-24T04:19:03.510Z,52.12
2023-03-24T04:24:14.769Z,52.05
2023-03-24T04:29:21.034Z,51.91
2023-03-24T04:34:26.294Z,52.21
2023-03-24T04:39:29.720Z,52.22
2023-03-24T04:44:37.200Z,52.02
2023-03-24T04:50:02.947Z,51.71
2023-03-24T04:55:13.567Z,51.85
2023-03-24T05:00:18.420Z,51.94
2023-03-24T05:05:21.788Z,51.63
2023-03-24T05:10:25.112Z,51.62
2023-03-24T05:15:32.903Z,51.82
2023-03-24T05:20:55.056Z,51.71
2023-03-24T05:25:58.373Z,51.69
2023-03-24T05:31:05.362Z,51.96
2023-03-24T05:36:18.529Z,51.72
2023-03-24T05:41:29.527Z,51.65
2023-03-24T05:46:33.672Z,51.82
2023-03-24T05:51:39.631Z,51.81
2023-03-24T05:56:43.345Z,51.99
2023-03-24T06:02:03.295Z,51.84
2023-03-24T06:07:16.217Z,51.85
2023-03-24T06:12:21.647Z,51.63
2023-03-24T06:17:38.416Z,51.62
2023-03-24T06:22:48.371Z,51.74
2023-03-24T06:27:54.128Z,51.63
2023-03-24T06:33:01.210Z,51.50
2023-03-24T06:38:04.469Z,51.59
2023-03-24T06:43:07.629Z,51.66
2023-03-24T06:48:15.461Z,51.84
2023-03-24T06:53:18.496Z,51.58
2023-03-24T06:58:22.610Z,51.63
2023-03-24T07:03:26.896Z,51.46
2023-03-24T07:08:48.516Z,51.70
2023-03-24T07:13:51.821Z,51.73
2023-03-24T07:18:56.081Z,51.74
2023-03-24T07:23:59.980Z,51.26
2023-03-24T07:29:10.825Z,51.14
2023-03-24T07:34:34.201Z,51.24
2023-03-24T07:39:37.503Z,51.00
2023-03-24T07:44:41.002Z,51.05
2023-03-24T07:49:46.173Z,51.08
2023-03-24T07:54:49.286Z,50.87
2023-03-24T08:00:25.154Z,50.87
2023-03-24T08:05:47.442Z,50.86
2023-03-24T08:11:06.326Z,50.29
2023-03-24T08:16:09.769Z,46.75
2023-03-24T08:21:14.058Z,46.12
2023-03-24T08:26:16.876Z,46.01
2023-03-24T08:31:19.690Z,46.14
2023-03-24T08:36:26.401Z,46.70
2023-03-24T08:41:34.678Z,47.46
2023-03-24T08:46:37.609Z,47.49
2023-03-24T08:51:41.729Z,47.52
2023-03-24T08:56:44.512Z,47.66
2023-03-24T09:01:47.570Z,47.86
2023-03-24T09:06:53.538Z,47.81
2023-03-24T09:11:56.391Z,48.04
2023-03-24T09:16:59.215Z,47.68
2023-03-24T09:22:03.477Z,48.02
2023-03-24T09:27:06.335Z,47.87
2023-03-24T09:32:09.376Z,48.17
2023-03-24T09:37:13.628Z,48.28
2023-03-24T09:42:19.816Z,48.00
2023-03-24T09:47:27.574Z,47.75
2023-03-24T09:52:34.715Z,47.62
2023-03-24T09:57:38.245Z,48.03
2023-03-24T10:02:41.231Z,47.49
2023-03-24T10:07:48.265Z,47.67
2023-03-24T10:12:51.243Z,47.92
2023-03-24T10:17:56.141Z,48.19
2023-03-24T10:23:03.774Z,48.29
2023-03-24T10:28:10.453Z,48.23
2023-03-24T10:33:13.422Z,48.58
2023-03-24T10:38:19.307Z,48.42
2023-03-24T10:43:22.315Z,48.58
2023-03-24T10:48:52.902Z,48.25
2023-03-24T10:54:12.057Z,48.39
2023-03-24T10:59:25.505Z,48.52
2023-03-24T11:04:29.229Z,48.16
2023-03-24T11:09:42.261Z,48.47
2023-03-24T11:14:45.585Z,47.43
2023-03-24T11:19:52.590Z,47.27
2023-03-24T11:24:57.495Z,48.83
2023-03-24T11:30:00.354Z,49.06
2023-03-24T11:35:05.688Z,49.26
2023-03-24T11:40:19.092Z,48.73
2023-03-24T11:45:24.553Z,48.63
2023-03-24T11:50:29.922Z,48.10
2023-03-24T11:55:37.234Z,47.29
2023-03-24T12:00:42.184Z,47.49
2023-03-24T12:05:47.661Z,47.76
2023-03-24T12:10:59.271Z,47.70
2023-03-24T12:16:11.898Z,47.81
2023-03-24T12:21:21.006Z,48.10
2023-03-24T12:26:25.974Z,48.11
2023-03-24T12:31:56.798Z,48.26
2023-03-24T12:37:01.586Z,48.38
2023-03-24T12:42:10.810Z,48.32
2023-03-24T12:47:20.969Z,48.58
2023-03-24T12:53:06.787Z,48.30
2023-03-24T12:58:16.011Z,49.05
2023-03-24T13:03:26.450Z,48.80
2023-03-24T13:08:30.423Z,49.09
2023-03-24T13:13:37.475Z,49.17
2023-03-24T13:18:41.287Z,48.88
2023-03-24T13:23:51.622Z,48.46
2023-03-24T13:29:05.880Z,48.45
2023-03-24T13:34:15.409Z,48.45
2023-03-24T13:39:19.996Z,48.54
2023-03-24T13:44:25.180Z,48.34
2023-03-24T13:49:27.972Z,48.20
2023-03-24T13:54:30.966Z,48.25
2023-03-24T13:59:41.191Z,48.29
2023-03-24T14:04:47.770Z,48.26
2023-03-24T14:09:59.168Z,48.21
2023-03-24T14:15:17.724Z,48.05
2023-03-24T14:20:42.995Z,48.85
2023-03-24T14:25:46.948Z,48.03
2023-03-24T14:31:18.460Z,47.90
2023-03-24T14:36:26.142Z,47.82
2023-03-24T14:41:31.389Z,47.85
2023-03-24T14:46:43.184Z,47.70
2023-03-24T14:51:48.558Z,47.54
2023-03-24T14:56:53.680Z,47.45
2023-03-24T15:02:02.467Z,47.06
2023-03-24T15:07:06.278Z,46.50
2023-03-24T15:12:10.018Z,41.09
2023-03-24T15:17:20.863Z,39.11
2023-03-24T15:22:23.905Z,43.59
2023-03-24T15:27:27.372Z,43.77
2023-03-24T15:32:32.720Z,44.25
2023-03-24T15:37:38.052Z,44.48
2023-03-24T15:42:43.236Z,44.64
2023-03-24T15:47:47.427Z,44.58
2023-03-24T15:52:50.266Z,43.95
2023-03-24T15:58:00.011Z,43.70
2023-03-24T16:03:05.123Z,43.78
2023-03-24T16:08:08.527Z,43.83
2023-03-24T16:13:16.685Z,43.85
2023-03-24T16:18:21.676Z,43.38
2023-03-24T16:23:26.772Z,43.63
2023-03-24T16:28:30.362Z,43.22
2023-03-24T16:33:36.346Z,42.88
2023-03-24T16:38:39.235Z,42.94
2023-03-24T16:43:42.070Z,43.40
2023-03-24T16:48:46.177Z,44.52
2023-03-24T16:53:49.056Z,45.12
2023-03-24T16:58:53.261Z,45.26
2023-03-24T17:03:58.036Z,45.90
2023-03-24T17:09:01.318Z,46.99
2023-03-24T17:14:07.209Z,46.82
2023-03-24T17:19:12.235Z,46.73
2023-03-24T17:24:15.080Z,45.87
2023-03-24T17:29:17.929Z,45.75
2023-03-24T17:34:22.598Z,46.01
2023-03-24T17:39:25.570Z,45.46
2023-03-24T17:44:28.354Z,45.27
2023-03-24T17:49:33.341Z,46.28
2023-03-24T17:54:36.123Z,46.28
2023-03-24T17:59:39.130Z,46.12
2023-03-24T18:04:43.318Z,46.48
2023-03-24T18:09:46.250Z,46.51
2023-03-24T18:14:49.009Z,46.56
2023-03-24T18:19:53.133Z,46.53
2023-03-24T18:24:58.021Z,46.65
2023-03-24T18:30:00.875Z,46.80
2023-03-24T18:35:05.650Z,46.87
2023-03-24T18:40:09.984Z,46.77
2023-03-24T18:45:18.454Z,46.72
2023-03-24T18:50:22.659Z,46.84
2023-03-24T18:55:26.641Z,46.73
2023-03-24T19:00:29.457Z,47.10
2023-03-24T19:05:34.290Z,46.94
2023-03-24T19:10:37.137Z,46.97
2023-03-24T19:15:48.375Z,47.07
2023-03-24T19:20:55.941Z,46.79
2023-03-24T19:25:58.805Z,47.04
2023-03-24T19:31:06.893Z,46.71
2023-03-24T19:36:11.479Z,46.87
2023-03-24T19:41:15.018Z,46.89
2023-03-24T19:46:20.934Z,46.88
2023-03-24T19:51:25.376Z,47.05
2023-03-24T19:56:28.258Z,47.03
2023-03-24T20:01:34.879Z,47.02
2023-03-24T20:06:39.151Z,47.09
2023-03-24T20:11:42.234Z,47.04
2023-03-24T20:16:45.076Z,47.16
2023-03-24T20:21:49.332Z,47.15
2023-03-24T20:26:52.273Z,47.04
2023-03-24T20:31:55.234Z,47.11
2023-03-24T20:36:59.629Z,47.15
2023-03-24T20:42:02.717Z,47.15
2023-03-24T20:47:05.821Z,47.19
2023-03-24T20:52:10.100Z,47.07
2023-03-24T20:57:12.908Z,47.07
2023-03-24T21:02:16.386Z,47.27
2023-03-24T21:07:20.621Z,47.22
2023-03-24T21:12:23.392Z,47.17
2023-03-24T21:17:32.575Z,47.43
2023-03-24T21:22:47.472Z,46.90
2023-03-24T21:27:50.275Z,47.33
2023-03-24T21:32:53.757Z,47.23
2023-03-24T21:37:57.885Z,47.39
2023-03-24T21:43:05.121Z,47.34
2023-03-24T21:48:08.109Z,47.14
2023-03-24T21:53:15.484Z,47.58
2023-03-24T21:58:18.318Z,47.48
2023-03-24T22:03:21.611Z,47.55
2023-03-24T22:08:30.529Z,47.52
2023-03-24T22:13:34.455Z,47.80
2023-03-24T22:18:37.211Z,48.12
2023-03-24T22:23:42.338Z,47.87
2023-03-24T22:28:45.281Z,47.83
2023-03-24T22:33:49.745Z,48.18
2023-03-24T22:38:54.029Z,48.31
2023-03-24T22:43:56.860Z,48.24
2023-03-24T22:48:59.731Z,48.20
2023-03-24T22:54:04.136Z,48.30
2023-03-24T22:59:07.044Z,48.46
2023-03-24T23:04:09.866Z,48.55
2023-03-24T23:09:14.442Z,48.65
2023-03-24T23:14:18.381Z,48.55
2023-03-24T23:19:21.902Z,48.59
2023-03-24T23:24:26.578Z,48.58
2023-03-24T23:29:29.340Z,48.23
2023-03-24T23:34:32.219Z,48.51
2023-03-24T23:39:36.844Z,48.50
2023-03-24T23:44:39.835Z,48.37
2023-03-24T23:49:42.788Z,48.52
2023-03-24T23:54:46.932Z,48.43
2023-03-24T23:59:53.039Z,48.07
